Flagstaff, AZ (86011)

2:07 AM MST on August 05, 2015 (GMT -0700)
Foxglenn | | Change Station
CLOSE
Current Station
Personal Weather Station
Location: Flagstaff, AZ
Elevation: 6801 ft
Nearby Weather Stations

Elev 6801 ft 35.20 °N, 111.60 °W | Updated 0 second ago

Clear
Clear
59.4 °F
Feels Like 59.4 °F
N
4.5
Wind Variable Wind from SW
Gusts 4.5 mph

Today
High -- | Low -- °F
--% Chance of Precip.
Yesterday
High -- | Low -- °F
Precip. -- in
5:38 AM 7:26 PM
Waning Gibbous, 69% visible
Pressure 30.02 in
Visibility 10.0 miles
Clouds Clear
Dew Point 33 °F
Humidity 37%
Rainfall 0.00 in
Snow Depth Not available.
UV 0 out of 12
Pollen 4.50 out of 12
Air Quality Not available.
Flu Activity Not available.
METAR KFLG 050857Z AUTO 00000KT 10SM CLR 11/00 A3034 RMK AO2 SLP166 T01110000 58000 TSNO

More Conditions Fewer Conditions

Pressure 30.02 in
Visibility 10.0 miles
Clouds Clear
Dew Point 33 °F
Humidity 37%
Rainfall 0.00 in
Snow Depth Not available.
UV 0 out of 12
Pollen 4.50 out of 12
Air Quality Not available.
Flu Activity Not available.
METAR KFLG 050857Z AUTO 00000KT 10SM CLR 11/00 A3034 RMK AO2 SLP166 T01110000 58000 TSNO

More Conditions Fewer Conditions

10-Day Weather Forecast

×

Almanac

Astronomy

Aug. 05, 2015 Rise Set
Actual Time
Civil Twilight
Nautical Twilight
Astronomical Twilight
Moon
Length of Visible Light
Length of Day
Tomorrow will be .
, % of the Moon is Illuminated

Today's Extremes

State Highs State Lows

Community

WunderPhotos

Upload Photos

1,844,105 photos uploaded!

WunderBlogs® & News

Nearby

Air Quality

  Air Quality AQ Index Pollutant
Not available.

Snow Depth

Station Depth Elevation

Earthquake Activity

City Distance Mag. Time & Date
Minimum magnitude displayed is 2.5.

Coastal Water Temperatures

Place Temperature

Stations

Nearby Weather Stations

Station Location Temp. Windchill Dew Point Humidity Wind Precip. Elev Updated Type